Ivs Sparrowhawk — 9V2742 — position and weather

sailwx.info

Track history (hours):
 
Tides and Currents Weather Stations Pressure Air Temp Water Temp Dewpoint Dewpoint Depression Visibility Wind Speed Wind Dir Waves Ship Positions

Ivs Sparrowhawk

Last reported at 2017-Sep-21 22:33 UTC. Time now 2017-Sep-22 02:35 UTC.
Position N 37°19' E 004°30'.

Length 180 m; draft 9.8 m.

Type: Cargo ship. MMSI: 565583000.

Date/timePositionNaut miles runAvg speedWind from/ knotsBaromVisibWave heightAir tempDewpointWater temp
2017-Sep-21 22:33N 37°19' E 004°30'111.1
2017-Sep-21 22:30N 37°19' E 004°30'1311.1
2017-Sep-21 21:17N 37°19' E 004°13'1511.1
2017-Sep-21 19:56N 37°19' E 003°54'511.0
2017-Sep-21 19:29N 37°19' E 003°48'610.9
2017-Sep-21 18:57N 37°18' E 003°41'510.8
2017-Sep-21 18:30N 37°18' E 003°35'2010.6
2017-Sep-21 16:35N 37°17' E 003°09'110.6
2017-Sep-21 16:29N 37°17' E 003°08'610.5
2017-Sep-21 15:56N 37°16' E 003°00'510.7
2017-Sep-21 15:30N 37°15' E 002°55'510.7
2017-Sep-21 15:00N 37°13' E 002°49'510.9
2017-Sep-21 14:30N 37°11' E 002°42'1611.0
2017-Sep-21 13:01N 37°07' E 002°22'410.9
2017-Sep-21 12:41N 37°06' E 002°18'4210.9
2017-Sep-21 08:47N 36°53' E 001°28'3811.6
2017-Sep-21 05:32N 36°42' E 000°42'011.9
2017-Sep-21 05:30N 36°42' E 000°42'611.9
2017-Sep-21 05:00N 36°40' E 000°35'612.0
2017-Sep-21 04:30N 36°38' E 000°28'611.8
2017-Sep-21 04:00N 36°36' E 000°21'711.7
2017-Sep-21 03:27N 36°34' E 000°13'511.5
2017-Sep-21 03:00N 36°33' E 000°07'711.6
2017-Sep-21 02:24N 36°31' W 000°01'511.7
2017-Sep-21 01:57N 36°29' W 000°08'511.5
2017-Sep-21 01:30N 36°28' W 000°14'611.2
2017-Sep-21 01:00N 36°26' W 000°20'611.2
2017-Sep-21 00:30N 36°24' W 000°27'611.2
2017-Sep-21 00:00N 36°23' W 000°33'611.4
2017-Sep-20 23:29N 36°21' W 000°41'511.5
2017-Sep-20 23:00N 36°19' W 000°47'611.8
2017-Sep-20 22:30N 36°17' W 000°54'612.1
2017-Sep-20 22:00N 36°15' W 001°01'612.1
2017-Sep-20 21:29N 36°14' W 001°09'1511.8
2017-Sep-20 20:15N 36°09' W 001°26'311.6
2017-Sep-20 20:00N 36°08' W 001°29'611.4
2017-Sep-20 19:30N 36°07' W 001°36'611.2
2017-Sep-20 18:56N 36°05' W 001°43'16311.9
2017-Sep-20 05:11N 35°59' W 005°05'314.4
2017-Sep-20 05:00N 35°59' W 005°08'714.4
2017-Sep-20 04:31N 35°59' W 005°17'713.6
2017-Sep-20 04:00N 35°57' W 005°25'612.6
2017-Sep-20 03:30N 35°55' W 005°33'612.1
2017-Sep-20 03:00N 35°54' W 005°40'612.7
2017-Sep-20 02:30N 35°53' W 005°48'612.1
2017-Sep-20 01:59N 35°53' W 005°56'2611.5
2017-Sep-19 23:43N 35°52' W 006°28'311.9
2017-Sep-19 23:28N 35°52' W 006°31'911.6
2017-Sep-19 22:41N 35°53' W 006°43'212.2
2017-Sep-19 22:30N 35°54' W 006°45'611.6
2017-Sep-19 22:00N 35°57' W 006°51'611.5
2017-Sep-19 21:30N 35°59' W 006°58'2511.3
2017-Sep-19 19:17N 36°07' W 007°27'311.3
2017-Sep-19 19:00N 36°08' W 007°31'1211.6
2017-Sep-19 17:55N 36°14' W 007°45'611.6
2017-Sep-19 17:24N 36°16' W 007°52'712.4
2017-Sep-19 16:49N 36°18' W 008°00'413.7
2017-Sep-19 16:30N 36°19' W 008°05'813.6
2017-Sep-19 15:54N 36°21' W 008°15'712.1
2017-Sep-19 15:20N 36°22' W 008°24'511.7
2017-Sep-19 14:55N 36°23' W 008°30'511.9
2017-Sep-19 14:29N 36°25' W 008°36'1612.0
2017-Sep-19 13:07N 36°29' W 008°55'212.3
2017-Sep-19 12:56N 36°30' W 008°58'5610.8
2017-Sep-19 07:48N 37°14' W 009°41'512.0
2017-Sep-19 07:23N 37°19' W 009°42'1212.3
2017-Sep-19 06:25N 37°30' W 009°44'1512.3
2017-Sep-19 05:14N 37°44' W 009°50'312.1
2017-Sep-19 04:58N 37°47' W 009°50'511.7
2017-Sep-19 04:30N 37°53' W 009°52'611.8
2017-Sep-19 03:57N 37°59' W 009°53'511.8
2017-Sep-19 03:30N 38°04' W 009°55'611.8
2017-Sep-19 03:00N 38°10' W 009°57'611.7
2017-Sep-19 02:30N 38°16' W 009°58'611.9
2017-Sep-19 02:01N 38°21' W 010°00'612.1
2017-Sep-19 01:31N 38°27' W 010°02'612.7
2017-Sep-19 01:00N 38°33' W 010°04'612.5
2017-Sep-19 00:30N 38°39' W 010°06'612.0
2017-Sep-19 00:00N 38°45' W 010°07'612.1
2017-Sep-18 23:31N 38°51' W 010°07'612.1
2017-Sep-18 23:01N 38°58' W 010°07'611.7
2017-Sep-18 22:31N 39°03' W 010°06'611.6
2017-Sep-18 22:01N 39°09' W 010°06'611.8
2017-Sep-18 21:30N 39°15' W 010°06'612.1
2017-Sep-18 21:00N 39°21' W 010°08'612.2
2017-Sep-18 20:29N 39°27' W 010°09'612.0
2017-Sep-18 19:58N 39°33' W 010°10'1011.9
2017-Sep-18 19:08N 39°43' W 010°12'  
2017-Sep-16 08:27N 49°36' W 004°02'512.3
2017-Sep-16 08:01N 49°38' W 003°55'612.3
2017-Sep-16 07:30N 49°41' W 003°46'612.2
2017-Sep-16 07:01N 49°44' W 003°38'612.0
2017-Sep-16 06:30N 49°47' W 003°30'611.7
2017-Sep-16 06:01N 49°50' W 003°22'612.1
2017-Sep-16 05:31N 49°52' W 003°13'612.4
2017-Sep-16 05:01N 49°55' W 003°04'611.8
2017-Sep-16 04:31N 49°57' W 002°56'510.5
2017-Sep-16 04:01N 49°59' W 002°48'510.3
2017-Sep-16 03:29N 50°00' W 002°40'4310.7
2017-Sep-15 23:28N 50°01' W 001°33'613.0
2017-Sep-15 23:01N 49°58' W 001°25'713.5
2017-Sep-15 22:30N 49°55' W 001°16'713.8
2017-Sep-15 22:00N 49°51' W 001°07'713.4
2017-Sep-15 21:30N 49°48' W 000°57'2512.4
2017-Sep-15 19:30N 49°35' W 000°24'611.3
2017-Sep-15 18:59N 49°32' W 000°16'510.8
2017-Sep-15 18:30N 49°30' W 000°09'510.5
2017-Sep-15 18:01N 49°28' W 000°02'5 9.1
2017-Sep-15 17:30N 49°26' E 000°05'511.0
2017-Sep-15 17:01N 49°26' E 000°13'5 9.1
2017-Sep-15 16:30N 49°26' E 000°20'4 8.5
2017-Sep-15 16:01N 49°28' E 000°26'3 6.9
2017-Sep-15 15:30N 49°29' E 000°31'5 6.8
2017-Sep-15 14:49N 49°26' E 000°36'  
2017-Sep-13 00:13N 49°28' E 000°40'4 9.9
2017-Sep-12 23:46N 49°27' E 000°33'3 9.9
2017-Sep-12 23:25N 49°28' E 000°28'613.8
2017-Sep-12 23:00N 49°26' E 000°20'713.3
2017-Sep-12 22:30N 49°26' E 000°10'611.9
2017-Sep-12 22:00N 49°27' E 000°01'4 8.4
2017-Sep-12 21:30N 49°29' W 000°05'2 3.6
2017-Sep-12 21:00N 49°29' W 000°08'0 0.6
2017-Sep-12 20:28N 49°29' W 000°08'0 0.1
2017-Sep-12 19:58N 49°29' W 000°08'0 0.0
2017-Sep-12 19:28N 49°29' W 000°08'0 0.0
2017-Sep-12 18:58N 49°29' W 000°08'0 0.0
2017-Sep-12 18:28N 49°29' W 000°08'0 0.0
2017-Sep-12 17:58N 49°29' W 000°08'0 0.0
2017-Sep-12 17:28N 49°29' W 000°08'0 0.1
2017-Sep-12 16:58N 49°29' W 000°08'0 0.0
2017-Sep-12 16:28N 49°29' W 000°08'1 1.6
2017-Sep-12 16:00N 49°29' W 000°09'2 4.8
2017-Sep-12 15:30N 49°30' W 000°13'611.2
2017-Sep-12 15:00N 49°33' W 000°20'2213.0
2017-Sep-12 13:18N 49°44' W 000°50'414.0
2017-Sep-12 13:00N 49°46' W 000°56'714.2
2017-Sep-12 12:30N 49°49' W 001°05'714.7
2017-Sep-12 12:01N 49°54' W 001°14'816.0
2017-Sep-12 11:31N 49°57' W 001°26'815.6
2017-Sep-12 11:00N 49°58' W 001°38'816.2
2017-Sep-12 10:31N 49°56' W 001°50'815.6
2017-Sep-12 10:01N 49°55' W 002°02'2513.6
2017-Sep-12 08:10N 49°50' W 002°40'213.0
2017-Sep-12 08:00N 49°50' W 002°43'612.8
2017-Sep-12 07:30N 49°48' W 002°53'812.1
2017-Sep-12 06:51N 49°45' W 003°04'411.7
2017-Sep-12 06:30N 49°43' W 003°10'611.7
2017-Sep-12 06:00N 49°40' W 003°17'611.7
2017-Sep-12 05:30N 49°37' W 003°25'611.4
2017-Sep-12 05:00N 49°34' W 003°33'1511.2
2017-Sep-12 03:41N 49°26' W 003°52'310.9
2017-Sep-12 03:26N 49°25' W 003°56'3810.6
2017-Sep-11 23:54N 49°06' W 004°46'410.8
2017-Sep-11 23:29N 49°04' W 004°51'511.1
2017-Sep-11 23:00N 49°01' W 004°58'  
Track history (hours):
 
Tides and Currents Weather Stations Pressure Air Temp Water Temp Dewpoint Dewpoint Depression Visibility Wind Speed Wind Dir Waves Ship Positions

Ivs Sparrowhawk

Last reported at 2017-Sep-21 22:33 UTC. Time now 2017-Sep-22 02:35 UTC.
Position N 37°19' E 004°30'.

Length 180 m; draft 9.8 m.

Type: Cargo ship. MMSI: 565583000.

Date/timePositionNaut miles runAvg speedWind from/ knotsBaromVisibWave heightAir tempDewpointWater temp
2017-Sep-21 22:33N 37°19' E 004°30'111.1
2017-Sep-21 22:30N 37°19' E 004°30'1311.1
2017-Sep-21 21:17N 37°19' E 004°13'1511.1
2017-Sep-21 19:56N 37°19' E 003°54'511.0
2017-Sep-21 19:29N 37°19' E 003°48'610.9
2017-Sep-21 18:57N 37°18' E 003°41'510.8
2017-Sep-21 18:30N 37°18' E 003°35'2010.6
2017-Sep-21 16:35N 37°17' E 003°09'110.6
2017-Sep-21 16:29N 37°17' E 003°08'610.5
2017-Sep-21 15:56N 37°16' E 003°00'510.7
2017-Sep-21 15:30N 37°15' E 002°55'510.7
2017-Sep-21 15:00N 37°13' E 002°49'510.9
2017-Sep-21 14:30N 37°11' E 002°42'1611.0
2017-Sep-21 13:01N 37°07' E 002°22'410.9
2017-Sep-21 12:41N 37°06' E 002°18'4210.9
2017-Sep-21 08:47N 36°53' E 001°28'3811.6
2017-Sep-21 05:32N 36°42' E 000°42'011.9
2017-Sep-21 05:30N 36°42' E 000°42'611.9
2017-Sep-21 05:00N 36°40' E 000°35'612.0
2017-Sep-21 04:30N 36°38' E 000°28'611.8
2017-Sep-21 04:00N 36°36' E 000°21'711.7
2017-Sep-21 03:27N 36°34' E 000°13'511.5
2017-Sep-21 03:00N 36°33' E 000°07'711.6
2017-Sep-21 02:24N 36°31' W 000°01'511.7
2017-Sep-21 01:57N 36°29' W 000°08'511.5
2017-Sep-21 01:30N 36°28' W 000°14'611.2
2017-Sep-21 01:00N 36°26' W 000°20'611.2
2017-Sep-21 00:30N 36°24' W 000°27'611.2
2017-Sep-21 00:00N 36°23' W 000°33'611.4
2017-Sep-20 23:29N 36°21' W 000°41'511.5
2017-Sep-20 23:00N 36°19' W 000°47'611.8
2017-Sep-20 22:30N 36°17' W 000°54'612.1
2017-Sep-20 22:00N 36°15' W 001°01'612.1
2017-Sep-20 21:29N 36°14' W 001°09'1511.8
2017-Sep-20 20:15N 36°09' W 001°26'311.6
2017-Sep-20 20:00N 36°08' W 001°29'611.4
2017-Sep-20 19:30N 36°07' W 001°36'611.2
2017-Sep-20 18:56N 36°05' W 001°43'16311.9
2017-Sep-20 05:11N 35°59' W 005°05'314.4
2017-Sep-20 05:00N 35°59' W 005°08'714.4
2017-Sep-20 04:31N 35°59' W 005°17'713.6
2017-Sep-20 04:00N 35°57' W 005°25'612.6
2017-Sep-20 03:30N 35°55' W 005°33'612.1
2017-Sep-20 03:00N 35°54' W 005°40'612.7
2017-Sep-20 02:30N 35°53' W 005°48'612.1
2017-Sep-20 01:59N 35°53' W 005°56'2611.5
2017-Sep-19 23:43N 35°52' W 006°28'311.9
2017-Sep-19 23:28N 35°52' W 006°31'911.6
2017-Sep-19 22:41N 35°53' W 006°43'212.2
2017-Sep-19 22:30N 35°54' W 006°45'611.6
2017-Sep-19 22:00N 35°57' W 006°51'611.5
2017-Sep-19 21:30N 35°59' W 006°58'2511.3
2017-Sep-19 19:17N 36°07' W 007°27'311.3
2017-Sep-19 19:00N 36°08' W 007°31'1211.6
2017-Sep-19 17:55N 36°14' W 007°45'611.6
2017-Sep-19 17:24N 36°16' W 007°52'712.4
2017-Sep-19 16:49N 36°18' W 008°00'413.7
2017-Sep-19 16:30N 36°19' W 008°05'813.6
2017-Sep-19 15:54N 36°21' W 008°15'712.1
2017-Sep-19 15:20N 36°22' W 008°24'511.7
2017-Sep-19 14:55N 36°23' W 008°30'511.9
2017-Sep-19 14:29N 36°25' W 008°36'1612.0
2017-Sep-19 13:07N 36°29' W 008°55'212.3
2017-Sep-19 12:56N 36°30' W 008°58'5610.8
2017-Sep-19 07:48N 37°14' W 009°41'512.0
2017-Sep-19 07:23N 37°19' W 009°42'1212.3
2017-Sep-19 06:25N 37°30' W 009°44'1512.3
2017-Sep-19 05:14N 37°44' W 009°50'312.1
2017-Sep-19 04:58N 37°47' W 009°50'511.7
2017-Sep-19 04:30N 37°53' W 009°52'611.8
2017-Sep-19 03:57N 37°59' W 009°53'511.8
2017-Sep-19 03:30N 38°04' W 009°55'611.8
2017-Sep-19 03:00N 38°10' W 009°57'611.7
2017-Sep-19 02:30N 38°16' W 009°58'611.9
2017-Sep-19 02:01N 38°21' W 010°00'612.1
2017-Sep-19 01:31N 38°27' W 010°02'612.7
2017-Sep-19 01:00N 38°33' W 010°04'612.5
2017-Sep-19 00:30N 38°39' W 010°06'612.0
2017-Sep-19 00:00N 38°45' W 010°07'612.1
2017-Sep-18 23:31N 38°51' W 010°07'612.1
2017-Sep-18 23:01N 38°58' W 010°07'611.7
2017-Sep-18 22:31N 39°03' W 010°06'611.6
2017-Sep-18 22:01N 39°09' W 010°06'611.8
2017-Sep-18 21:30N 39°15' W 010°06'612.1
2017-Sep-18 21:00N 39°21' W 010°08'612.2
2017-Sep-18 20:29N 39°27' W 010°09'612.0
2017-Sep-18 19:58N 39°33' W 010°10'1011.9
2017-Sep-18 19:08N 39°43' W 010°12'  
2017-Sep-16 08:27N 49°36' W 004°02'512.3
2017-Sep-16 08:01N 49°38' W 003°55'612.3
2017-Sep-16 07:30N 49°41' W 003°46'612.2
2017-Sep-16 07:01N 49°44' W 003°38'612.0
2017-Sep-16 06:30N 49°47' W 003°30'611.7
2017-Sep-16 06:01N 49°50' W 003°22'612.1
2017-Sep-16 05:31N 49°52' W 003°13'612.4
2017-Sep-16 05:01N 49°55' W 003°04'611.8
2017-Sep-16 04:31N 49°57' W 002°56'510.5
2017-Sep-16 04:01N 49°59' W 002°48'510.3
2017-Sep-16 03:29N 50°00' W 002°40'4310.7
2017-Sep-15 23:28N 50°01' W 001°33'613.0
2017-Sep-15 23:01N 49°58' W 001°25'713.5
2017-Sep-15 22:30N 49°55' W 001°16'713.8
2017-Sep-15 22:00N 49°51' W 001°07'713.4
2017-Sep-15 21:30N 49°48' W 000°57'2512.4
2017-Sep-15 19:30N 49°35' W 000°24'611.3
2017-Sep-15 18:59N 49°32' W 000°16'510.8
2017-Sep-15 18:30N 49°30' W 000°09'510.5
2017-Sep-15 18:01N 49°28' W 000°02'5 9.1
2017-Sep-15 17:30N 49°26' E 000°05'511.0
2017-Sep-15 17:01N 49°26' E 000°13'5 9.1
2017-Sep-15 16:30N 49°26' E 000°20'4 8.5
2017-Sep-15 16:01N 49°28' E 000°26'3 6.9
2017-Sep-15 15:30N 49°29' E 000°31'5 6.8
2017-Sep-15 14:49N 49°26' E 000°36'  
2017-Sep-13 00:13N 49°28' E 000°40'4 9.9
2017-Sep-12 23:46N 49°27' E 000°33'3 9.9
2017-Sep-12 23:25N 49°28' E 000°28'613.8
2017-Sep-12 23:00N 49°26' E 000°20'713.3
2017-Sep-12 22:30N 49°26' E 000°10'611.9
2017-Sep-12 22:00N 49°27' E 000°01'4 8.4
2017-Sep-12 21:30N 49°29' W 000°05'2 3.6
2017-Sep-12 21:00N 49°29' W 000°08'0 0.6
2017-Sep-12 20:28N 49°29' W 000°08'0 0.1
2017-Sep-12 19:58N 49°29' W 000°08'0 0.0
2017-Sep-12 19:28N 49°29' W 000°08'0 0.0
2017-Sep-12 18:58N 49°29' W 000°08'0 0.0
2017-Sep-12 18:28N 49°29' W 000°08'0 0.0
2017-Sep-12 17:58N 49°29' W 000°08'0 0.0
2017-Sep-12 17:28N 49°29' W 000°08'0 0.1
2017-Sep-12 16:58N 49°29' W 000°08'0 0.0
2017-Sep-12 16:28N 49°29' W 000°08'1 1.6
2017-Sep-12 16:00N 49°29' W 000°09'2 4.8
2017-Sep-12 15:30N 49°30' W 000°13'611.2
2017-Sep-12 15:00N 49°33' W 000°20'2213.0
2017-Sep-12 13:18N 49°44' W 000°50'414.0
2017-Sep-12 13:00N 49°46' W 000°56'714.2
2017-Sep-12 12:30N 49°49' W 001°05'714.7
2017-Sep-12 12:01N 49°54' W 001°14'816.0
2017-Sep-12 11:31N 49°57' W 001°26'815.6
2017-Sep-12 11:00N 49°58' W 001°38'816.2
2017-Sep-12 10:31N 49°56' W 001°50'815.6
2017-Sep-12 10:01N 49°55' W 002°02'2513.6
2017-Sep-12 08:10N 49°50' W 002°40'213.0
2017-Sep-12 08:00N 49°50' W 002°43'612.8
2017-Sep-12 07:30N 49°48' W 002°53'812.1
2017-Sep-12 06:51N 49°45' W 003°04'411.7
2017-Sep-12 06:30N 49°43' W 003°10'611.7
2017-Sep-12 06:00N 49°40' W 003°17'611.7
2017-Sep-12 05:30N 49°37' W 003°25'611.4
2017-Sep-12 05:00N 49°34' W 003°33'1511.2
2017-Sep-12 03:41N 49°26' W 003°52'310.9
2017-Sep-12 03:26N 49°25' W 003°56'3810.6
2017-Sep-11 23:54N 49°06' W 004°46'410.8
2017-Sep-11 23:29N 49°04' W 004°51'511.1
2017-Sep-11 23:00N 49°01' W 004°58'  

Dump ship's entire track history